Lonetree, Wyoming
Current Conditions -  °F | °C
As of 5:35 AM on Sunday 23 Nov 2014 (Local Time) from KFBR Reporting Station
Clear Clear  
Wind Chill: 10°   Ceiling: Unl
Heat Index: 24°   Visibility: 10mi
Dew Point: 20°   Wind: 18mph
Humidity: 86%   Direction: 260°W
Pressure: 29.92"   Gusts: 29mph
Location:  41.0297°N, 110.145°W
Report Text: KFBR 231235Z AUTO 26016G25KT 10SM CLR M04/M06 A2992 RMK AO2 T10451065
Loading
Personal Weather Stations






























Interactive Weather Map New forecast layout! Learn more

10-Day Weather Forecast

Advertisements
Track Severe Weather on mobile